Time;durP1;ratioP1;P1;durP2;ratioP2;P2;SDS_P1;SDS_P2;PMS_P1;PMS_P2;Temp;Humidity;BMP_temperature;BMP_pressure;BME280_temperature;BME280_humidity;BME280_pressure;Samples;Min_cycle;Max_cycle;Signal;HPM_P1;HPM_P2
2022/08/11 00:00:43;;;;;;;8.75;3.92;;;;;;;13.90;58.21;99247.91;5029712;28;20025;-83
2022/08/11 00:03:12;;;;;;;7.55;3.60;;;;;;;13.90;58.33;99252.59;5029399;28;20705;-84
2022/08/11 00:05:50;;;;;;;6.30;3.88;;;;;;;13.86;58.52;99243.31;5029946;28;20033;-83
2022/08/11 00:08:30;;;;;;;6.75;3.70;;;;;;;13.82;58.48;99246.66;5029587;28;20326;-83
2022/08/11 00:11:02;;;;;;;7.47;3.60;;;;;;;13.80;58.77;99246.13;5029773;28;20022;-84
2022/08/11 00:13:46;;;;;;;6.95;3.75;;;;;;;13.76;58.29;99247.00;5029454;28;20033;-83
2022/08/11 00:16:15;;;;;;;6.72;4.00;;;;;;;13.75;58.77;99239.84;5029549;28;20065;-83
2022/08/11 00:18:47;;;;;;;10.40;3.90;;;;;;;13.71;58.90;99247.91;5030082;28;20060;-83
2022/08/11 00:21:14;;;;;;;12.02;4.07;;;;;;;13.70;59.08;99246.28;5029494;28;20057;-83
2022/08/11 00:23:45;;;;;;;12.32;4.60;;;;;;;13.67;59.36;99255.94;5030088;28;20026;-84
2022/08/11 00:26:13;;;;;;;11.68;4.30;;;;;;;13.64;59.35;99251.06;5029945;28;20017;-83
2022/08/11 00:28:40;;;;;;;10.95;4.35;;;;;;;13.62;59.30;99238.66;5029885;28;20026;-84
2022/08/11 00:31:09;;;;;;;8.02;3.97;;;;;;;13.59;59.47;99244.78;5029398;28;20547;-84
2022/08/11 00:33:42;;;;;;;8.77;4.28;;;;;;;13.55;59.27;99239.03;5033656;28;20030;-83
2022/08/11 00:36:11;;;;;;;7.05;3.80;;;;;;;13.52;59.40;99242.41;5033943;28;20124;-83
2022/08/11 00:38:40;;;;;;;8.75;4.10;;;;;;;13.50;59.43;99234.41;5033915;28;20040;-83
2022/08/11 00:41:27;;;;;;;6.72;4.10;;;;;;;13.49;59.63;99241.03;5033544;28;20021;-83
2022/08/11 00:44:23;;;;;;;8.60;4.05;;;;;;;13.47;59.67;99234.19;5033231;28;20050;-83
2022/08/11 00:47:14;;;;;;;11.38;4.05;;;;;;;13.46;59.96;99230.59;5033280;28;20018;-83
2022/08/11 00:50:01;;;;;;;9.23;4.03;;;;;;;13.45;59.58;99231.72;5033079;28;20091;-83
2022/08/11 00:52:51;;;;;;;8.18;3.90;;;;;;;13.46;59.92;99232.56;5033109;28;20037;-83
2022/08/11 00:55:16;;;;;;;;;;;;;;;13.44;59.70;99229.28;5033738;28;20195;-82
2022/08/11 00:58:07;;;;;;;7.18;4.20;;;;;;;13.38;59.74;99232.06;5033453;28;19992;-83
2022/08/11 01:00:41;;;;;;;8.68;4.07;;;;;;;13.38;59.95;99228.50;5033391;28;20034;-83
2022/08/11 01:03:53;;;;;;;9.25;4.40;;;;;;;13.37;60.01;99238.69;5032247;28;20345;-83
2022/08/11 01:06:48;;;;;;;9.82;4.57;;;;;;;13.37;60.10;99237.88;5032747;28;20390;-83
2022/08/11 01:09:32;;;;;;;7.75;4.32;;;;;;;13.33;60.16;99234.06;5033635;28;20022;-83
2022/08/11 01:12:35;;;;;;;8.40;4.47;;;;;;;13.28;59.84;99232.19;5033940;28;20698;-83
2022/08/11 01:15:47;;;;;;;8.20;4.70;;;;;;;13.24;60.10;99228.41;5034247;28;20112;-83
2022/08/11 01:18:53;;;;;;;8.57;4.55;;;;;;;13.19;60.13;99236.72;5011724;28;20033;-83
2022/08/11 01:21:59;;;;;;;7.68;4.75;;;;;;;13.16;60.59;99235.38;5033321;28;20491;-83
2022/08/11 01:24:47;;;;;;;10.65;4.78;;;;;;;13.16;60.31;99240.06;4991588;28;20053;-83
2022/08/11 01:27:30;;;;;;;10.32;4.80;;;;;;;13.13;60.43;99232.41;5032915;28;20124;-82
2022/08/11 01:30:23;;;;;;;8.90;4.78;;;;;;;13.12;60.65;99231.56;5033652;28;20091;-83
2022/08/11 01:33:10;;;;;;;8.68;4.88;;;;;;;13.10;61.03;99234.63;5033700;28;20029;-83
2022/08/11 01:36:06;;;;;;;9.52;5.10;;;;;;;13.06;60.50;99228.06;5033574;28;20113;-83
2022/08/11 01:38:53;;;;;;;11.05;4.90;;;;;;;13.03;60.64;99231.41;5032174;28;20040;-83
2022/08/11 01:45:01;;;;;;;7.30;4.70;;;;;;;12.93;60.99;99220.50;5033217;28;20068;-82
2022/08/11 01:47:58;;;;;;;8.00;4.53;;;;;;;12.89;60.98;99225.78;5033605;28;20060;-83
2022/08/11 01:50:41;;;;;;;6.45;4.38;;;;;;;12.86;61.38;99220.03;5033081;28;20517;-83
2022/08/11 01:53:11;;;;;;;9.07;4.28;;;;;;;12.83;61.14;99231.66;5032973;28;20039;-83
2022/08/11 01:55:57;;;;;;;9.77;4.03;;;;;;;12.82;61.84;99233.56;5032767;28;20491;-83
2022/08/11 01:58:43;;;;;;;7.55;4.18;;;;;;;12.80;61.44;99228.38;5033270;28;20029;-83
2022/08/11 02:01:23;;;;;;;8.65;4.40;;;;;;;12.83;61.73;99220.63;5033012;28;20034;-83
2022/08/11 02:04:02;;;;;;;7.70;4.28;;;;;;;12.86;61.42;99222.78;5032582;28;20498;-82
2022/08/11 02:06:55;;;;;;;5.97;4.20;;;;;;;12.91;61.67;99229.06;5033172;28;20041;-83
2022/08/11 02:09:42;;;;;;;7.57;4.55;;;;;;;12.93;61.96;99220.50;5032878;28;20025;-83
2022/08/11 02:12:45;;;;;;;5.82;4.13;;;;;;;12.97;62.20;99220.75;5032053;28;20021;-82
2022/08/11 02:15:16;;;;;;;7.75;4.28;;;;;;;13.06;62.27;99214.28;5032761;28;20475;-82
2022/08/11 02:17:49;;;;;;;9.27;4.38;;;;;;;13.09;62.23;99216.47;5033020;28;20033;-83
2022/08/11 02:23:51;;;;;;;10.95;5.18;;;;;;;13.19;62.28;99218.25;5033323;28;20391;-83
2022/08/11 02:26:19;;;;;;;10.30;5.95;;;;;;;13.29;62.64;99213.75;5020772;28;20037;-82
2022/08/11 02:28:48;;;;;;;10.43;5.60;;;;;;;13.32;62.45;99219.47;5032519;28;20033;-82
2022/08/11 02:34:19;;;;;;;9.65;5.50;;;;;;;13.43;62.75;99217.44;5032482;28;20091;-82
2022/08/11 02:36:57;;;;;;;10.75;5.30;;;;;;;13.43;62.69;99217.44;5032454;28;20075;-82
2022/08/11 02:39:30;;;;;;;10.80;5.75;;;;;;;13.42;62.67;99214.97;5032372;28;20109;-82
2022/08/11 02:42:41;;;;;;;12.57;5.20;;;;;;;13.43;62.50;99220.19;5032156;28;20079;-82
2022/08/11 02:45:16;;;;;;;9.77;5.32;;;;;;;13.47;62.53;99209.41;5023544;28;20289;-83
2022/08/11 02:51:09;;;;;;;11.02;5.60;;;;;;;13.48;62.42;99219.31;5029290;28;20040;-82
2022/08/11 02:53:59;;;;;;;9.95;5.90;;;;;;;13.48;62.72;99211.84;5030583;28;20017;-82
2022/08/11 02:56:43;;;;;;;14.00;5.18;;;;;;;13.49;62.79;99205.22;5030797;28;20070;-82
2022/08/11 03:02:26;;;;;;;9.02;5.35;;;;;;;13.51;62.89;99221.47;5031795;28;20103;-81
2022/08/11 03:05:12;;;;;;;10.30;6.32;;;;;;;13.51;62.94;99211.25;5031849;28;20087;-82
2022/08/11 03:07:55;;;;;;;11.18;5.65;;;;;;;13.54;63.10;99212.59;5031604;28;20064;-82
2022/08/11 03:16:43;;;;;;;12.82;6.72;;;;;;;13.58;63.17;99212.81;5031615;28;20053;-82
2022/08/11 03:16:44;;;;;;;14.48;6.57;;;;;;;13.63;63.06;99207.22;5031646;28;20044;-81
2022/08/11 03:19:30;;;;;;;14.52;6.68;;;;;;;13.68;63.37;99209.91;5031390;28;20542;-82
2022/08/11 03:22:02;;;;;;;11.50;5.75;;;;;;;13.74;63.45;99210.66;5028362;28;20064;-82
2022/08/11 03:24:37;;;;;;;11.63;6.28;;;;;;;13.80;63.29;99210.28;5029901;28;20041;-82
2022/08/11 03:27:06;;;;;;;8.93;5.50;;;;;;;13.87;63.46;99211.81;5031409;28;20041;-82
2022/08/11 03:30:15;;;;;;;9.50;6.18;;;;;;;13.92;63.40;99214.50;5029335;28;20542;-83
2022/08/11 03:34:00;;;;;;;12.48;6.82;;;;;;;13.96;63.47;99224.66;4988903;28;20023;-82
2022/08/11 03:35:42;;;;;;;14.48;6.68;;;;;;;13.99;63.40;99215.78;4988790;28;20046;-82
2022/08/11 03:38:17;;;;;;;11.55;6.10;;;;;;;14.02;63.44;99219.06;5020046;28;20044;-82
2022/08/11 03:44:19;;;;;;;11.15;5.57;;;;;;;14.01;63.06;99218.22;5029532;28;20065;-83
2022/08/11 03:47:40;;;;;;;10.13;6.30;;;;;;;14.00;63.09;99216.59;5029784;28;20429;-83
2022/08/11 03:50:53;;;;;;;12.18;6.72;;;;;;;13.96;63.10;99219.13;4998742;28;20090;-83
2022/08/11 03:53:46;;;;;;;13.00;6.68;;;;;;;13.96;63.13;99213.63;4999677;28;20068;-83
2022/08/11 03:56:37;;;;;;;11.68;6.07;;;;;;;13.92;62.90;99215.34;5031375;28;20549;-83
2022/08/11 03:59:32;;;;;;;12.50;6.07;;;;;;;13.92;63.34;99214.50;5029042;28;20651;-83
2022/08/11 04:02:25;;;;;;;11.20;5.85;;;;;;;13.91;63.33;99219.22;5030854;28;20096;-83
2022/08/11 04:05:18;;;;;;;14.25;5.68;;;;;;;13.90;63.23;99216.75;5031297;28;20037;-83
2022/08/11 04:08:01;;;;;;;12.32;6.30;;;;;;;13.89;63.26;99212.34;5029791;28;20411;-83
2022/08/11 04:10:52;;;;;;;11.98;6.40;;;;;;;13.88;63.32;99207.94;5030804;28;20033;-83
2022/08/11 04:13:56;;;;;;;11.60;5.53;;;;;;;13.88;63.32;99217.06;5030676;28;20030;-83
2022/08/11 04:16:43;;;;;;;10.15;5.88;;;;;;;13.90;63.33;99225.84;5030856;28;20510;-82
2022/08/11 04:19:46;;;;;;;9.07;5.13;;;;;;;13.88;63.26;99217.06;5029656;28;20026;-82
2022/08/11 04:22:50;;;;;;;10.27;4.70;;;;;;;13.90;63.31;99216.75;5030638;28;20079;-82
2022/08/11 04:25:35;;;;;;;8.52;4.88;;;;;;;13.92;63.60;99226.38;5030504;28;20112;-83
2022/08/11 04:28:03;;;;;;;9.43;4.88;;;;;;;13.96;63.72;99224.66;5030479;28;20125;-83
2022/08/11 04:30:43;;;;;;;10.32;5.50;;;;;;;14.01;63.80;99221.00;5030664;28;20542;-83
2022/08/11 04:33:46;;;;;;;9.52;5.18;;;;;;;14.07;63.90;99217.03;5030413;28;20040;-83
2022/08/11 04:37:30;;;;;;;8.10;4.95;;;;;;;14.12;63.60;99214.19;5030729;28;20025;-84
2022/08/11 04:39:22;;;;;;;7.50;4.82;;;;;;;14.16;63.64;99216.34;5030416;28;20112;-83
2022/08/11 04:45:32;;;;;;;10.52;4.97;;;;;;;14.29;63.69;99212.78;5030237;28;20103;-84
2022/08/11 05:03:27;;;;;;;7.63;4.88;;;;;;;14.77;63.10;99216.38;5030372;28;20061;-83
2022/08/11 05:05:55;;;;;;;9.93;5.38;;;;;;;14.85;63.82;99222.03;5030240;28;20025;-83
2022/08/11 05:08:27;;;;;;;10.00;4.97;;;;;;;14.92;63.64;99221.63;5029962;28;20034;-83
2022/08/11 05:10:56;;;;;;;7.88;4.57;;;;;;;14.99;63.41;99221.19;5030103;28;20091;-83
2022/08/11 05:36:28;;;;;;;9.25;4.50;;;;;;;15.56;63.17;99233.84;5033634;28;20494;-83
2022/08/11 05:58:37;;;;;;;6.68;3.95;;;;;;;16.12;62.63;99225.38;5033124;28;20040;-84
2022/08/11 06:01:03;;;;;;;9.30;4.55;;;;;;;16.18;62.78;99224.94;5032951;28;20025;-83
2022/08/11 06:03:31;;;;;;;7.95;3.72;;;;;;;16.25;63.00;99220.94;5032926;28;20028;-83
2022/08/11 06:05:58;;;;;;;8.57;4.40;;;;;;;16.31;62.74;99228.78;5032794;28;20037;-83
2022/08/11 06:08:29;;;;;;;10.57;4.55;;;;;;;16.38;62.56;99225.53;5032879;28;20065;-84
2022/08/11 06:11:01;;;;;;;13.85;4.55;;;;;;;16.46;62.80;99227.56;5032823;28;20059;-84
2022/08/11 06:13:27;;;;;;;9.55;4.38;;;;;;;16.55;62.47;99240.63;5032599;28;20025;-86
2022/08/11 06:15:54;;;;;;;8.57;4.50;;;;;;;16.63;62.82;99229.59;5032089;28;20107;-78
2022/08/11 06:18:20;;;;;;;10.98;4.65;;;;;;;16.73;62.22;99233.25;5032612;28;20468;-82
2022/08/11 06:20:54;;;;;;;8.75;4.90;;;;;;;16.80;62.28;99236.38;5032163;28;20067;-81
2022/08/11 06:23:24;;;;;;;10.77;4.80;;;;;;;16.88;62.30;99235.59;5032151;28;20026;-81
2022/08/11 06:25:53;;;;;;;9.73;4.28;;;;;;;16.96;62.50;99245.09;5027640;28;20033;-81
2022/08/11 06:28:29;;;;;;;9.07;4.90;;;;;;;17.04;62.77;99237.97;5030764;28;20029;-80
2022/08/11 06:30:55;;;;;;;9.90;4.60;;;;;;;17.10;62.24;99231.97;5030559;28;20101;-81
2022/08/11 06:33:28;;;;;;;8.32;4.65;;;;;;;17.16;62.13;99232.63;5031656;28;20051;-81
2022/08/11 06:36:12;;;;;;;11.65;4.97;;;;;;;17.22;62.17;99234.13;5030869;28;20040;-81
2022/08/11 06:39:02;;;;;;;11.20;5.40;;;;;;;17.30;62.46;99234.47;5031017;28;20079;-82
2022/08/11 06:41:51;;;;;;;11.00;5.07;;;;;;;17.37;62.24;99232.84;5031306;28;20117;-81
2022/08/11 06:44:28;;;;;;;9.65;4.40;;;;;;;17.49;62.38;99229.44;5030257;28;20052;-82
2022/08/11 06:46:59;;;;;;;11.25;4.68;;;;;;;17.60;62.22;99235.47;5030929;28;20033;-82
2022/08/11 06:52:18;;;;;;;11.93;4.78;;;;;;;17.84;61.90;99239.75;5028711;28;20689;-83
2022/08/11 06:55:01;;;;;;;10.57;4.45;;;;;;;17.95;61.81;99237.47;5030326;28;20029;-83
2022/08/11 07:00:32;;;;;;;11.00;4.25;;;;;;;18.19;61.47;99233.41;4988592;28;20104;-82
2022/08/11 07:03:08;;;;;;;9.15;4.57;;;;;;;18.32;61.34;99232.41;5022628;28;20137;-81
2022/08/11 07:05:57;;;;;;;10.98;4.32;;;;;;;18.45;60.99;99233.34;5030598;28;20029;-86
2022/08/11 07:28:54;;;;;;;8.63;3.42;;;;;;;19.04;59.91;99241.03;5029917;28;20395;-85
2022/08/11 07:28:57;;;;;;;8.80;3.40;;;;;;;19.62;59.04;99245.28;5030343;28;20044;-84
2022/08/11 07:31:34;;;;;;;7.97;2.80;;;;;;;19.72;58.71;99235.75;5011743;28;20500;-84
2022/08/11 07:34:31;;;;;;;7.45;3.25;;;;;;;19.81;58.43;99235.69;5029503;28;20036;-85
2022/08/11 07:36:59;;;;;;;6.72;3.00;;;;;;;19.89;58.29;99241.19;5029595;28;20510;-85
2022/08/11 07:39:27;;;;;;;6.50;3.08;;;;;;;20.00;58.19;99244.38;5030180;28;20025;-84
2022/08/11 07:41:55;;;;;;;6.93;2.70;;;;;;;20.09;57.54;99238.75;5029495;28;20080;-84
2022/08/11 07:44:27;;;;;;;10.00;3.20;;;;;;;20.17;57.92;99235.06;5029449;28;20120;-85
2022/08/11 07:52:29;;;;;;;4.32;2.65;;;;;;;20.52;56.92;99236.69;5030196;28;20080;-78
2022/08/11 07:55:16;;;;;;;5.38;2.90;;;;;;;20.59;56.91;99231.38;5029182;28;20025;-84
2022/08/11 08:17:51;;;;;;;4.18;2.17;;;;;;;21.54;54.44;99224.09;5030480;28;20099;-78
2022/08/11 08:20:20;;;;;;;3.28;2.38;;;;;;;21.61;53.72;99227.13;5026509;28;20026;-81
2022/08/11 08:22:55;;;;;;;3.45;2.03;;;;;;;21.62;53.06;99230.75;5028991;28;20063;-80
2022/08/11 08:25:23;;;;;;;5.32;2.05;;;;;;;21.67;53.25;99224.91;5029512;28;20025;-80
2022/08/11 08:27:50;;;;;;;3.15;1.60;;;;;;;21.80;52.52;99228.50;5029648;28;20033;-78
2022/08/11 08:33:01;;;;;;;3.88;1.52;;;;;;;22.16;51.77;99223.97;5029066;28;20040;-83
2022/08/11 08:35:29;;;;;;;5.05;1.80;;;;;;;22.31;51.54;99214.78;5030593;28;20115;-83
2022/08/11 08:37:56;;;;;;;2.03;1.50;;;;;;;22.44;49.31;99217.56;5029497;28;20033;-83
2022/08/11 08:40:21;;;;;;;4.60;1.65;;;;;;;22.49;50.80;99216.47;5034825;28;20021;-79
2022/08/11 08:42:53;;;;;;;5.50;1.70;;;;;;;22.58;50.46;99209.56;5034345;28;20100;-81
2022/08/11 08:45:21;;;;;;;4.60;1.70;;;;;;;22.71;49.90;99215.06;5028350;28;20037;-81
2022/08/11 08:48:02;;;;;;;4.18;1.60;;;;;;;22.94;50.03;99211.66;5030011;28;20120;-81
2022/08/11 08:53:28;;;;;;;2.47;1.52;;;;;;;23.36;47.77;99207.47;5037614;28;20080;-85
2022/08/11 08:55:55;;;;;;;3.67;1.60;;;;;;;23.38;47.81;99214.34;5033333;28;20059;-84
2022/08/11 08:58:23;;;;;;;2.97;1.50;;;;;;;23.43;47.08;99211.25;5035770;28;20025;-83
2022/08/11 09:00:51;;;;;;;3.58;1.40;;;;;;;23.51;46.53;99211.41;5034642;28;20021;-86
2022/08/11 09:03:18;;;;;;;2.75;1.75;;;;;;;23.55;46.32;99212.28;5033996;28;20440;-82
2022/08/11 09:05:45;;;;;;;2.63;1.70;;;;;;;23.60;46.03;99203.63;5035898;28;20467;-82
2022/08/11 09:08:11;;;;;;;4.82;1.58;;;;;;;23.70;45.61;99203.03;5032749;28;20056;-80
2022/08/11 09:10:39;;;;;;;1.92;1.60;;;;;;;23.86;46.23;99205.78;5033302;28;20060;-79
2022/08/11 09:13:05;;;;;;;3.38;2.03;;;;;;;24.08;45.93;99198.66;5036955;28;20021;-79
2022/08/11 09:15:32;;;;;;;3.30;1.88;;;;;;;24.30;46.46;99203.88;5036905;28;20052;-79
2022/08/11 09:18:04;;;;;;;3.42;1.77;;;;;;;24.55;45.30;99206.31;5034406;28;20045;-79
2022/08/11 09:20:35;;;;;;;4.63;1.80;;;;;;;24.64;45.35;99207.72;5032596;28;20021;-77
2022/08/11 09:28:43;;;;;;;3.75;1.90;;;;;;;24.52;44.65;99200.28;5033103;28;20053;-77
2022/08/11 09:31:10;;;;;;;4.05;1.85;;;;;;;24.52;42.81;99194.66;5028442;28;20099;-75
2022/08/11 09:33:37;;;;;;;4.18;2.00;;;;;;;24.46;42.81;99184.94;5025272;28;20127;-78
2022/08/11 09:40:27;;;;;;;7.88;2.40;;;;;;;24.35;42.47;99197.97;5032619;28;20037;-75
2022/08/11 09:41:35;;;;;;;3.22;2.00;;;;;;;24.28;43.12;99193.00;5030529;28;20060;-76
2022/08/11 09:46:45;;;;;;;6.72;2.40;;;;;;;24.07;43.21;99190.59;5028201;28;20095;-81
2022/08/11 09:49:11;;;;;;;6.18;2.40;;;;;;;23.96;42.69;99195.97;5027984;28;20025;-83
2022/08/11 09:51:37;;;;;;;3.03;2.03;;;;;;;23.87;43.21;99190.59;5030613;28;20112;-79
2022/08/11 09:54:05;;;;;;;5.50;2.15;;;;;;;23.78;43.19;99193.63;5031157;28;20144;-81
2022/08/11 09:59:19;;;;;;;4.78;2.40;;;;;;;23.74;43.59;99184.31;5032242;28;20111;-79
2022/08/11 10:01:48;;;;;;;5.82;2.22;;;;;;;23.77;43.41;99183.59;5030684;28;20108;-79
2022/08/11 10:04:21;;;;;;;4.75;1.88;;;;;;;23.80;44.16;99182.03;5031327;28;20031;-80
2022/08/11 10:07:01;;;;;;;4.00;1.88;;;;;;;23.88;44.37;99168.97;5031502;28;20030;-81
2022/08/11 10:10:00;;;;;;;5.30;1.98;;;;;;;24.01;44.28;99167.69;5031706;28;20472;-82
2022/08/11 10:12:32;;;;;;;3.55;1.70;;;;;;;24.10;44.41;99166.66;5028154;28;20041;-80
2022/08/11 10:20:37;;;;;;;3.38;1.50;;;;;;;24.38;42.43;99147.56;5031268;28;20579;-82
2022/08/11 10:28:37;;;;;;;3.10;1.50;;;;;;;24.63;42.85;99144.41;5031632;28;20084;-80
2022/08/11 10:33:59;;;;;;;2.08;1.15;;;;;;;24.76;41.12;99147.00;5031388;28;20064;-81
2022/08/11 10:36:29;;;;;;;3.00;1.10;;;;;;;24.76;40.99;99150.66;5031262;28;20545;-79
2022/08/11 10:38:59;;;;;;;3.88;1.35;;;;;;;24.80;41.35;99142.28;5031199;28;20418;-81
2022/08/11 10:44:12;;;;;;;2.70;1.10;;;;;;;25.03;40.70;99144.25;5030879;28;20773;-81
2022/08/11 10:49:25;;;;;;;5.22;1.30;;;;;;;24.99;39.54;99135.75;5031546;28;20051;-83
2022/08/11 11:00:14;;;;;;;3.13;1.35;;;;;;;25.03;39.54;99131.00;5030789;28;20088;-82
2022/08/11 11:02:42;;;;;;;1.65;1.20;;;;;;;25.05;38.67;99125.84;5030322;28;20026;-83
2022/08/11 11:05:20;;;;;;;3.08;1.20;;;;;;;25.13;39.21;99132.34;5030379;28;20022;-81
2022/08/11 11:08:51;;;;;;;2.53;1.13;;;;;;;25.24;39.79;99124.91;5030647;28;20519;-81
2022/08/11 11:10:57;;;;;;;2.00;1.20;;;;;;;25.38;38.61;99115.06;5029466;28;20053;-82
2022/08/11 11:17:54;;;;;;;3.33;1.30;;;;;;;25.58;38.24;99109.31;4997201;28;20043;-82
2022/08/11 11:19:10;;;;;;;5.70;1.33;;;;;;;25.66;38.63;99097.81;5029608;28;20877;-83
2022/08/11 11:21:38;;;;;;;2.47;1.20;;;;;;;25.73;38.87;99097.06;5030211;28;20063;-84
2022/08/11 11:24:36;;;;;;;1.85;1.15;;;;;;;25.83;37.36;99099.22;5030571;28;20018;-83
2022/08/11 11:27:25;;;;;;;1.65;1.30;;;;;;;25.98;37.97;99104.97;5026752;28;20029;-82
2022/08/11 11:30:09;;;;;;;2.42;1.20;;;;;;;26.05;37.93;99105.03;5030701;28;20387;-79
2022/08/11 11:32:34;;;;;;;2.22;1.23;;;;;;;26.00;37.72;99108.19;5030874;28;20117;-84
2022/08/11 11:35:15;;;;;;;4.70;1.30;;;;;;;25.93;37.01;99102.50;5030245;28;20100;-84
2022/08/11 11:37:43;;;;;;;2.55;1.30;;;;;;;25.75;36.66;99100.31;5030549;28;20091;-84
2022/08/11 11:40:14;;;;;;;8.10;1.45;;;;;;;25.54;36.80;99096.03;5030558;28;20060;-83
2022/08/11 11:42:43;;;;;;;4.72;1.30;;;;;;;25.43;37.15;99089.47;5035827;28;20025;-80
2022/08/11 11:45:10;;;;;;;2.83;1.38;;;;;;;25.34;37.19;99091.75;5029903;28;20100;-78
2022/08/11 11:47:37;;;;;;;1.90;1.10;;;;;;;25.36;37.91;99086.56;5032811;28;20119;-81
2022/08/11 11:50:06;;;;;;;3.63;1.25;;;;;;;25.39;37.97;99080.97;5029943;28;20025;-81
2022/08/11 11:52:32;;;;;;;3.28;1.30;;;;;;;25.49;37.92;99081.53;5031855;28;20041;-76
2022/08/11 11:54:59;;;;;;;4.28;1.10;;;;;;;25.61;38.14;99075.69;5030580;28;20034;-79
2022/08/11 12:03:04;;;;;;;1.92;0.95;;;;;;;26.12;36.76;99059.31;5029936;28;20091;-82
2022/08/11 12:05:33;;;;;;;2.45;1.30;;;;;;;26.20;36.82;99061.03;5030561;28;20452;-82
2022/08/11 12:08:16;;;;;;;1.38;0.93;;;;;;;26.26;36.81;99056.69;5034882;28;20048;-80
2022/08/11 12:13:49;;;;;;;1.30;1.02;;;;;;;26.43;36.20;99051.63;5028659;28;20517;-80
2022/08/11 12:16:22;;;;;;;2.17;1.20;;;;;;;26.44;35.58;99045.59;5029555;28;20053;-79
2022/08/11 12:18:50;;;;;;;1.13;1.02;;;;;;;26.56;36.18;99035.22;5027243;28;20083;-80
2022/08/11 12:21:16;;;;;;;3.70;1.38;;;;;;;26.77;35.47;99048.63;5028518;28;20036;-81
2022/08/11 12:27:19;;;;;;;4.78;1.08;;;;;;;26.93;35.16;99042.72;5030120;28;20040;-81
2022/08/11 12:29:26;;;;;;;4.95;1.15;;;;;;;26.84;35.03;99033.81;5033204;28;20044;-80
2022/08/11 12:31:57;;;;;;;2.53;1.20;;;;;;;26.61;35.21;99029.25;5031056;28;20111;-81
2022/08/11 12:34:26;;;;;;;2.10;1.20;;;;;;;26.62;35.83;99030.84;5033643;28;20112;-81
2022/08/11 12:37:00;;;;;;;1.33;1.08;;;;;;;26.83;35.81;99032.22;5031800;28;20227;-81
2022/08/11 12:45:49;;;;;;;1.38;0.88;;;;;;;27.15;34.53;99028.75;5033889;28;20096;-83
2022/08/11 12:53:25;;;;;;;1.88;1.10;;;;;;;27.22;34.78;99028.00;5031897;28;20043;-83
2022/08/11 12:58:40;;;;;;;3.30;0.90;;;;;;;27.84;34.97;99023.38;5029816;28;20617;-80
2022/08/11 13:06:37;;;;;;;4.03;1.20;;;;;;;30.81;33.36;98993.91;5030250;28;20391;-79
2022/08/11 13:09:04;;;;;;;3.75;1.20;;;;;;;32.01;32.05;98999.63;5032047;28;20044;-79
2022/08/11 13:14:15;;;;;;;1.90;1.02;;;;;;;33.05;28.97;98999.03;5033073;28;20584;-77
2022/08/11 13:19:30;;;;;;;3.95;1.10;;;;;;;32.08;26.61;98998.72;5031806;28;20362;-79
2022/08/11 13:21:57;;;;;;;1.33;0.88;;;;;;;31.49;28.50;98995.09;5030279;28;20033;-79
2022/08/11 13:24:23;;;;;;;3.50;0.98;;;;;;;31.04;28.71;98984.75;5034294;28;20033;-77
2022/08/11 13:26:50;;;;;;;1.70;0.98;;;;;;;30.84;28.83;98990.25;5030933;28;20437;-79
2022/08/11 13:29:26;;;;;;;2.10;1.00;;;;;;;33.44;28.17;98984.44;5032382;28;20036;-79
2022/08/11 13:31:57;;;;;;;1.95;0.80;;;;;;;34.96;27.21;98984.34;5031347;28;20068;-79
2022/08/11 13:34:25;;;;;;;2.10;1.05;;;;;;;37.53;25.15;98980.72;5031486;28;20367;-80
2022/08/11 13:36:53;;;;;;;3.03;1.00;;;;;;;39.70;23.83;98979.91;5032097;28;20029;-80
2022/08/11 13:39:20;;;;;;;;;;;;;;;41.55;22.84;98975.28;5031623;28;20041;-78
2022/08/11 13:41:47;;;;;;;3.47;0.80;;;;;;;42.72;18.97;98970.09;5033534;28;19942;-79
2022/08/11 13:44:16;;;;;;;0.80;0.70;;;;;;;42.40;20.24;98968.69;5031523;28;20037;-79
2022/08/11 13:46:42;;;;;;;2.63;0.80;;;;;;;41.73;18.40;98965.63;5030401;28;20506;-80
2022/08/11 13:49:09;;;;;;;2.70;0.88;;;;;;;39.77;20.26;98960.72;5032029;28;20033;-79
2022/08/11 13:51:37;;;;;;;4.57;1.20;;;;;;;39.50;19.87;98956.69;5032491;28;20025;-79
2022/08/11 13:54:18;;;;;;;2.00;1.40;;;;;;;40.61;19.67;98956.03;5032769;28;20558;-81
2022/08/11 13:56:46;;;;;;;1.80;0.98;;;;;;;42.26;18.50;98969.53;5032836;28;20581;-83
2022/08/11 13:59:14;;;;;;;3.38;1.00;;;;;;;43.58;19.11;98955.97;5033924;28;20116;-82
2022/08/11 14:02:06;;;;;;;2.08;1.00;;;;;;;45.04;17.68;98956.41;5031823;28;20386;-80
2022/08/11 14:04:38;;;;;;;5.85;1.10;;;;;;;46.08;16.17;98958.72;5026265;28;20041;-79
2022/08/11 14:07:07;;;;;;;2.15;1.05;;;;;;;46.89;15.92;98953.38;5031153;28;20778;-79
2022/08/11 14:09:42;;;;;;;1.60;0.90;;;;;;;47.67;15.11;98941.69;5031713;28;20113;-80
2022/08/11 14:15:23;;;;;;;3.45;0.90;;;;;;;48.92;13.78;98940.09;5030141;28;20183;-81
2022/08/11 14:18:19;;;;;;;2.17;1.10;;;;;;;47.90;14.13;98939.28;5029024;28;20479;-77
2022/08/11 14:23:40;;;;;;;1.83;0.70;;;;;;;49.08;13.22;98938.31;5031976;28;20478;-81
2022/08/11 14:26:25;;;;;;;1.10;0.82;;;;;;;49.22;12.42;98935.41;5032144;28;20031;-80
2022/08/11 14:28:53;;;;;;;0.77;0.40;;;;;;;49.26;11.78;98932.97;5030964;28;20034;-78
2022/08/11 14:31:22;;;;;;;1.10;1.00;;;;;;;48.99;12.33;98932.88;5031027;28;20029;-79
2022/08/11 14:33:49;;;;;;;2.28;0.90;;;;;;;49.51;12.77;98930.69;5031511;28;20468;-80
2022/08/11 14:36:19;;;;;;;1.33;0.90;;;;;;;50.06;13.15;98938.16;5031171;28;20467;-79
2022/08/11 14:38:46;;;;;;;1.75;0.60;;;;;;;49.01;12.65;98944.75;5031310;28;20479;-79
2022/08/11 14:49:27;;;;;;;11.02;1.55;;;;;;;35.38;20.46;99008.38;5030536;28;20037;-76
2022/08/11 14:51:56;;;;;;;10.38;1.73;;;;;;;32.94;22.42;99012.66;5029653;28;20036;-75
2022/08/11 14:57:12;;;;;;;5.20;1.65;;;;;;;29.09;27.49;99037.84;5030371;28;20403;-74
2022/08/11 14:59:38;;;;;;;5.85;1.50;;;;;;;27.64;30.56;99038.63;5030631;28;20033;-77
2022/08/11 15:04:50;;;;;;;4.00;1.05;;;;;;;25.19;34.39;99054.25;5029692;28;20107;-76
2022/08/11 15:07:16;;;;;;;3.55;1.20;;;;;;;24.37;35.85;99061.03;5030311;28;20041;-76
2022/08/11 15:09:43;;;;;;;4.72;1.60;;;;;;;23.69;37.56;99075.41;5030352;28;20037;-77
2022/08/11 15:12:17;;;;;;;2.47;1.10;;;;;;;23.15;38.91;99093.84;5030139;28;20108;-76
2022/08/11 15:17:33;;;;;;;3.13;1.13;;;;;;;22.12;41.23;99094.56;5029993;28;20044;-77
2022/08/11 15:25:44;;;;;;;2.10;0.80;;;;;;;21.03;43.52;99104.59;5029505;28;20091;-75
2022/08/11 15:39:22;;;;;;;2.85;1.08;;;;;;;19.76;48.51;99094.75;5029919;28;20364;-75
2022/08/11 15:47:31;;;;;;;3.25;1.30;;;;;;;19.50;48.61;99095.81;5029826;28;20130;-76
2022/08/11 15:50:00;;;;;;;2.20;1.08;;;;;;;19.45;49.00;99093.22;5029400;28;20110;-75
2022/08/11 15:52:33;;;;;;;3.85;1.23;;;;;;;19.36;49.40;99079.41;5028962;28;20045;-74
2022/08/11 15:55:04;;;;;;;2.70;1.00;;;;;;;19.32;51.83;99073.72;5025655;28;20029;-75
2022/08/11 16:05:46;;;;;;;2.83;2.05;;;;;;;19.09;51.84;99056.56;5027932;28;20099;-71
2022/08/11 16:08:16;;;;;;;8.32;6.85;;;;;;;18.99;51.77;99054.19;5028116;28;20021;-72
2022/08/11 16:10:44;;;;;;;8.90;5.53;;;;;;;18.92;52.86;99054.69;5027777;28;20030;-73
2022/08/11 16:18:39;;;;;;;3.67;2.10;;;;;;;18.91;53.63;99050.28;5029628;28;20076;-75
2022/08/11 16:21:10;;;;;;;2.60;2.22;;;;;;;18.93;53.43;99047.97;5021042;28;20061;-76
2022/08/11 16:23:37;;;;;;;4.72;2.45;;;;;;;19.00;53.32;99048.25;5027788;28;20033;-76
2022/08/11 16:26:06;;;;;;;4.07;3.03;;;;;;;19.13;53.92;99056.69;5026207;28;20060;-76
2022/08/11 16:28:33;;;;;;;4.57;1.90;;;;;;;19.16;54.21;99045.69;5027764;28;20049;-76
2022/08/11 16:31:00;;;;;;;4.53;1.75;;;;;;;19.21;54.80;99041.91;5027443;28;20026;-76
2022/08/11 16:33:28;;;;;;;2.92;1.50;;;;;;;19.27;54.63;99051.69;5028039;28;20028;-76
2022/08/11 16:38:40;;;;;;;4.40;1.80;;;;;;;19.36;54.36;99046.03;5029920;28;20044;-76
2022/08/11 16:41:09;;;;;;;6.00;1.90;;;;;;;19.34;54.62;99042.78;5029595;28;20550;-76
2022/08/11 16:49:17;;;;;;;4.45;1.70;;;;;;;19.22;54.95;99054.66;5030216;28;20063;-76
2022/08/11 16:51:44;;;;;;;4.47;1.60;;;;;;;19.18;55.38;99057.28;5030504;28;20183;-76
2022/08/11 16:54:09;;;;;;;4.68;1.60;;;;;;;19.10;55.63;99046.25;5030291;28;20045;-75
2022/08/11 16:56:44;;;;;;;2.95;1.60;;;;;;;18.97;55.33;99034.25;5030014;28;20450;-76
2022/08/11 16:59:17;;;;;;;2.35;1.40;;;;;;;18.82;55.56;99036.44;5030555;28;20033;-76